Time;durP1;ratioP1;P1;durP2;ratioP2;P2;SDS_P1;SDS_P2;PMS_P1;PMS_P2;Temp;Humidity;BMP_temperature;BMP_pressure;BME280_temperature;BME280_humidity;BME280_pressure;Samples;Min_cycle;Max_cycle;Signal;HPM_P1;HPM_P2
2022/03/29 00:00:36;;;;;;;60.78;46.17;;;11.50;99.90;;;12.00;83.60;101589.91;5071061;28;20094;-60
2022/03/29 00:03:06;;;;;;;59.40;45.13;;;11.70;99.90;;;12.11;83.18;101594.34;5071116;28;20138;-60
2022/03/29 00:05:34;;;;;;;62.15;46.70;;;11.80;99.90;;;12.17;82.96;101586.41;5071049;28;20490;-60
2022/03/29 00:08:04;;;;;;;65.68;45.83;;;11.90;99.90;;;12.10;82.70;101583.75;5069954;28;20045;-59
2022/03/29 00:10:33;;;;;;;58.47;44.53;;;11.90;99.90;;;12.24;82.83;101584.63;5071107;28;20109;-60
2022/03/29 00:13:03;;;;;;;63.38;45.17;;;11.90;99.90;;;12.20;83.01;101572.25;5069995;28;20163;-59
2022/03/29 00:15:32;;;;;;;58.78;45.50;;;11.90;99.90;;;12.33;82.53;101566.06;5071068;28;20082;-60
2022/03/29 00:18:00;;;;;;;65.13;45.30;;;12.00;99.90;;;12.28;82.42;101559.84;5071051;28;20506;-59
2022/03/29 00:20:28;;;;;;;58.80;43.72;;;12.00;99.90;;;12.30;82.10;101566.06;5070868;28;20052;-60
2022/03/29 00:22:57;;;;;;;60.38;45.58;;;12.00;99.90;;;12.38;82.08;101562.53;5071169;28;20151;-59
2022/03/29 00:25:26;;;;;;;59.13;44.25;;;12.10;99.90;;;12.41;82.13;101569.56;5071303;28;20068;-60
2022/03/29 00:27:54;;;;;;;57.33;44.53;;;12.10;99.90;;;12.33;81.69;101544.84;5071307;28;20132;-60
2022/03/29 00:30:24;;;;;;;61.10;44.50;;;12.20;99.90;;;12.51;81.49;101558.06;5069870;28;20147;-60
2022/03/29 00:32:53;;;;;;;59.70;43.13;;;12.20;99.90;;;11.82;81.06;101429.09;5072059;28;20132;-60
2022/03/29 00:35:24;;;;;;;57.35;43.63;;;12.30;99.90;;;12.24;81.83;101552.78;5074618;28;20045;-60
2022/03/29 00:37:53;;;;;;;56.00;42.88;;;12.10;99.90;;;12.42;81.63;101558.09;5075448;28;20043;-59
2022/03/29 00:40:22;;;;;;;60.30;43.60;;;12.10;99.90;;;12.36;81.34;101556.34;5074579;28;20121;-60
2022/03/29 00:42:51;;;;;;;59.72;42.80;;;12.10;99.90;;;12.24;82.10;101550.13;5074608;28;20250;-60
2022/03/29 00:45:19;;;;;;;56.70;42.95;;;12.00;99.90;;;12.39;81.89;101544.81;5074877;28;20497;-60
2022/03/29 00:47:49;;;;;;;57.00;43.08;;;12.10;99.90;;;12.35;81.74;101537.78;5075414;28;20053;-59
2022/03/29 00:50:18;;;;;;;55.45;41.25;;;12.10;99.90;;;12.14;81.52;101545.72;5074958;28;20056;-59
2022/03/29 00:52:46;;;;;;;61.78;42.85;;;12.00;99.90;;;10.99;86.02;101531.28;5074351;28;20485;-60
2022/03/29 00:55:17;;;;;;;62.90;44.40;;;11.00;99.90;;;10.47;88.00;101519.56;5074488;28;20052;-59
2022/03/29 00:57:46;;;;;;;;;;;10.50;99.90;;;10.66;88.18;101522.31;5074615;28;20040;-60
2022/03/29 01:00:17;;;;;;;64.03;43.72;;;10.50;99.90;;;11.09;88.16;101526.03;5074000;28;20023;-60
2022/03/29 01:02:45;;;;;;;65.60;45.55;;;10.70;99.90;;;11.30;87.04;101523.50;5074415;28;20110;-60
2022/03/29 01:05:15;;;;;;;65.63;44.85;;;10.90;99.90;;;11.45;86.72;101527.94;5072838;28;20040;-60
2022/03/29 01:07:44;;;;;;;69.67;46.97;;;11.10;99.90;;;11.51;85.93;101523.53;5074323;28;20048;-60
2022/03/29 01:10:12;;;;;;;62.45;45.28;;;11.20;99.90;;;11.63;85.99;101543.88;5074093;28;20287;-59
2022/03/29 01:12:41;;;;;;;59.65;44.42;;;11.30;99.90;;;11.51;86.24;101523.53;5073887;28;20090;-60
2022/03/29 01:15:10;;;;;;;66.00;46.28;;;11.30;99.90;;;10.86;88.27;101520.66;5073705;28;20037;-59
2022/03/29 01:17:38;;;;;;;61.00;44.47;;;10.80;99.90;;;11.20;88.07;101519.03;5073889;28;20060;-60
2022/03/29 01:20:18;;;;;;;63.03;45.75;;;10.80;99.90;;;11.37;87.37;101511.13;5073592;28;20094;-60
2022/03/29 01:22:49;;;;;;;62.97;45.30;;;11.00;99.90;;;11.52;86.50;101508.50;5073923;28;20044;-60
2022/03/29 01:25:20;;;;;;;60.63;44.13;;;11.20;99.90;;;11.43;86.40;101508.50;5073926;28;20051;-59
2022/03/29 01:27:51;;;;;;;59.75;43.15;;;11.20;99.90;;;11.60;85.66;101502.34;5073602;28;20064;-59
2022/03/29 01:30:21;;;;;;;66.18;43.92;;;11.30;99.90;;;11.68;85.05;101505.03;5073534;28;20126;-59
2022/03/29 01:32:51;;;;;;;54.13;40.88;;;11.40;99.90;;;11.72;84.43;101497.09;5073550;28;20044;-60
2022/03/29 01:35:23;;;;;;;60.72;43.17;;;11.40;99.90;;;11.73;84.07;101497.97;5073785;28;20482;-59
2022/03/29 01:37:54;;;;;;;65.32;41.30;;;11.50;99.90;;;11.83;83.42;101498.88;5073464;28;20113;-60
2022/03/29 01:40:25;;;;;;;58.78;41.22;;;11.60;99.90;;;11.87;83.06;101495.31;5073364;28;20048;-60
2022/03/29 01:42:57;;;;;;;56.67;41.03;;;11.60;99.90;;;11.86;82.73;101502.41;5073409;28;20098;-60
2022/03/29 01:45:28;;;;;;;53.28;40.35;;;11.60;99.90;;;11.90;82.37;101496.25;5072079;28;20433;-60
2022/03/29 01:47:57;;;;;;;55.58;40.13;;;11.60;99.90;;;11.72;82.57;101493.56;5073340;28;20044;-60
2022/03/29 01:50:26;;;;;;;54.47;38.72;;;11.50;99.90;;;11.52;83.28;101493.50;5073158;28;20072;-59
2022/03/29 01:52:56;;;;;;;56.72;38.95;;;11.30;99.90;;;11.18;83.82;101491.66;5073652;28;20048;-60
2022/03/29 01:55:25;;;;;;;55.08;39.47;;;11.10;99.90;;;10.99;85.26;101487.19;5073391;28;20033;-60
2022/03/29 01:57:53;;;;;;;57.25;40.80;;;10.90;99.90;;;10.94;85.34;101478.31;5073496;28;20474;-59
2022/03/29 02:00:34;;;;;;;59.05;41.33;;;10.80;99.90;;;11.23;85.40;101479.31;5073556;28;20041;-59
2022/03/29 02:03:05;;;;;;;59.08;40.22;;;10.90;99.90;;;11.39;85.03;101472.28;5072967;28;20044;-60
2022/03/29 02:05:35;;;;;;;62.67;42.03;;;11.00;99.90;;;11.45;84.83;101477.59;5072795;28;20131;-59
2022/03/29 02:08:05;;;;;;;59.70;42.30;;;11.20;99.90;;;11.53;84.43;101467.91;5072984;28;20418;-60
2022/03/29 02:10:34;;;;;;;64.32;42.80;;;11.20;99.90;;;11.61;83.92;101467.00;5073318;28;20056;-60
2022/03/29 02:13:03;;;;;;;58.88;40.72;;;11.30;99.90;;;10.84;83.26;101354.78;5072523;28;20138;-59
2022/03/29 02:15:32;;;;;;;60.28;41.25;;;11.30;99.90;;;11.04;85.71;101453.66;5072540;28;20072;-60
2022/03/29 02:18:00;;;;;;;66.22;43.50;;;10.90;99.90;;;11.34;85.49;101456.38;5072446;28;20075;-59
2022/03/29 02:20:28;;;;;;;68.35;44.95;;;11.00;99.90;;;11.25;84.94;101456.38;5072401;28;20114;-59
2022/03/29 02:23:04;;;;;;;59.30;42.30;;;11.00;99.90;;;11.46;84.74;101450.22;5072589;28;20131;-60
2022/03/29 02:25:32;;;;;;;67.10;44.28;;;11.20;99.90;;;11.32;84.30;101429.03;5072665;28;20109;-60
2022/03/29 02:28:01;;;;;;;64.65;44.65;;;11.20;99.90;;;11.07;85.56;101445.72;5072348;28;20066;-59
2022/03/29 02:30:32;;;;;;;62.08;42.65;;;10.90;99.90;;;11.12;85.44;101406.91;5072214;28;20517;-59
2022/03/29 02:33:01;;;;;;;63.17;43.97;;;11.00;99.90;;;11.45;84.76;101436.09;5072338;28;20052;-60
2022/03/29 02:35:30;;;;;;;68.07;45.03;;;11.10;99.90;;;11.43;84.36;101429.91;5072499;28;20048;-59
2022/03/29 02:37:59;;;;;;;62.95;43.75;;;11.20;99.90;;;11.22;85.13;101403.41;5072162;28;20055;-60
2022/03/29 02:40:29;;;;;;;72.68;46.85;;;11.10;99.90;;;11.42;84.82;101427.28;5072358;28;20520;-60
2022/03/29 02:42:57;;;;;;;68.75;45.97;;;11.20;99.90;;;11.53;84.63;101426.41;5072438;28;20110;-60
2022/03/29 02:45:27;;;;;;;67.07;45.72;;;11.20;99.90;;;11.60;84.30;101421.97;5072020;28;20060;-60
2022/03/29 02:47:58;;;;;;;68.05;45.40;;;11.30;99.90;;;11.67;83.78;101418.50;5072295;28;20139;-60
2022/03/29 02:50:26;;;;;;;;;;;11.40;99.90;;;11.32;85.06;101418.44;5072440;28;20509;-60
2022/03/29 02:52:59;;;;;;;64.85;43.65;;;11.20;99.90;;;11.55;84.67;101414.03;5071906;28;20361;-59
2022/03/29 02:55:32;;;;;;;68.97;44.90;;;11.30;99.90;;;11.61;84.20;101408.72;5071666;28;20044;-60
2022/03/29 02:58:01;;;;;;;64.53;45.85;;;11.30;99.90;;;11.64;83.87;101398.13;5072452;28;20045;-59
2022/03/29 03:00:29;;;;;;;70.32;46.60;;;11.40;99.90;;;11.33;84.64;101393.72;5071854;28;20036;-60
2022/03/29 03:02:59;;;;;;;70.43;46.47;;;11.20;99.90;;;11.23;85.73;101394.56;5072018;28;20072;-59
2022/03/29 03:05:28;;;;;;;75.78;47.47;;;11.00;99.90;;;11.37;85.31;101394.59;5072555;28;20139;-60
2022/03/29 03:07:56;;;;;;;71.35;46.97;;;11.10;99.90;;;11.46;85.08;101386.63;5071899;28;20035;-60
2022/03/29 03:10:25;;;;;;;74.93;47.78;;;11.20;99.90;;;11.51;85.28;101375.19;5071851;28;20453;-60
2022/03/29 03:12:55;;;;;;;73.65;49.13;;;11.20;99.90;;;11.54;85.04;101377.81;5071812;28;20044;-59
2022/03/29 03:15:25;;;;;;;74.47;47.53;;;11.30;99.90;;;11.36;84.98;101377.81;5072245;28;20051;-59
2022/03/29 03:17:55;;;;;;;79.57;50.38;;;11.20;99.90;;;11.41;85.20;101372.50;5071878;28;20059;-60
2022/03/29 03:20:24;;;;;;;76.97;48.67;;;11.20;99.90;;;11.53;84.93;101368.13;5071723;28;20135;-60
2022/03/29 03:22:53;;;;;;;77.72;51.30;;;11.20;99.90;;;11.47;84.60;101354.88;5071633;28;20047;-60
2022/03/29 03:25:21;;;;;;;75.65;48.47;;;11.30;99.90;;;11.63;84.42;101361.03;5071838;28;20477;-61
2022/03/29 03:27:49;;;;;;;73.00;49.20;;;11.40;99.90;;;11.62;84.38;101357.50;5072069;28;20071;-60
2022/03/29 03:30:20;;;;;;;77.95;50.92;;;11.40;99.90;;;11.53;84.27;101352.22;5072038;28;20071;-60
2022/03/29 03:32:48;;;;;;;78.68;49.47;;;11.30;99.90;;;11.50;84.39;101344.25;5071794;28;20085;-59
2022/03/29 03:35:19;;;;;;;76.03;49.15;;;11.30;99.90;;;11.34;84.52;101349.56;5072218;28;20044;-60
2022/03/29 03:37:48;;;;;;;78.35;50.35;;;11.20;99.90;;;11.28;85.65;101339.88;5072533;28;20048;-60
2022/03/29 03:40:16;;;;;;;76.93;49.85;;;11.10;99.90;;;11.14;86.32;101336.31;5071832;28;20072;-61
2022/03/29 03:42:45;;;;;;;79.55;51.88;;;10.90;99.90;;;11.24;86.17;101335.44;5103997;28;20135;-60
2022/03/29 03:45:13;;;;;;;76.43;48.72;;;11.00;99.90;;;11.10;86.65;101334.56;5071799;28;20045;-60
2022/03/29 03:47:46;;;;;;;76.80;49.17;;;10.90;99.90;;;11.03;86.79;101329.25;5072016;28;20127;-60
2022/03/29 03:50:14;;;;;;;78.30;48.47;;;10.80;99.90;;;11.09;86.91;101327.47;5071561;28;20041;-60
2022/03/29 03:52:42;;;;;;;83.85;50.92;;;10.80;99.90;;;11.04;86.81;101323.06;5070295;28;20538;-61
2022/03/29 03:55:10;;;;;;;76.95;50.10;;;10.80;99.90;;;11.08;86.99;101324.84;5071637;28;20563;-60
2022/03/29 03:57:39;;;;;;;82.93;50.45;;;10.80;99.90;;;11.04;86.99;101323.94;5071537;28;20427;-60
2022/03/29 04:00:09;;;;;;;78.78;52.58;;;10.90;99.90;;;11.12;86.86;101314.25;5071508;28;20118;-60
2022/03/29 04:02:40;;;;;;;79.93;50.10;;;10.90;99.90;;;11.20;86.71;101312.50;5071425;28;20052;-60
2022/03/29 04:05:12;;;;;;;83.35;53.05;;;10.90;99.90;;;11.15;86.75;101314.25;5071427;28;20079;-62
2022/03/29 04:07:41;;;;;;;79.57;50.83;;;10.90;99.90;;;11.24;86.54;101314.25;5071999;28;20095;-61
2022/03/29 04:10:10;;;;;;;81.85;51.30;;;11.00;99.90;;;11.20;86.78;101314.25;5074966;28;20363;-61
2022/03/29 04:12:38;;;;;;;82.10;52.03;;;11.00;99.90;;;11.27;86.55;101314.25;5074826;28;20417;-59
2022/03/29 04:15:08;;;;;;;83.20;51.63;;;11.00;99.90;;;11.19;86.46;101312.50;5075169;28;20066;-59
2022/03/29 04:17:37;;;;;;;83.90;51.45;;;11.00;99.90;;;11.15;86.43;101316.88;5075099;28;20047;-60
2022/03/29 04:20:07;;;;;;;84.18;53.15;;;11.00;99.90;;;11.22;86.83;101312.50;5074738;28;20059;-60
2022/03/29 04:22:36;;;;;;;85.22;52.72;;;11.00;99.90;;;11.07;87.29;101305.41;5075002;28;20048;-60
2022/03/29 04:25:07;;;;;;;86.35;52.20;;;10.80;99.90;;;11.07;86.94;101309.84;5074975;28;20519;-59
2022/03/29 04:27:35;;;;;;;84.90;52.42;;;10.80;99.90;;;11.02;87.38;101304.53;5074602;28;20474;-59
2022/03/29 04:30:05;;;;;;;86.32;53.53;;;10.80;99.90;;;11.06;87.55;101301.00;5074562;28;20493;-59
2022/03/29 04:32:36;;;;;;;84.87;52.10;;;10.80;99.90;;;10.96;87.29;101282.47;5075143;28;20076;-59
2022/03/29 04:35:06;;;;;;;87.32;52.20;;;10.80;99.90;;;11.14;87.35;101312.50;5075068;28;20340;-59
2022/03/29 04:37:36;;;;;;;86.53;52.67;;;10.90;99.90;;;11.15;87.25;101319.53;5074416;28;20525;-59
2022/03/29 04:40:08;;;;;;;88.38;53.38;;;10.90;99.90;;;11.13;87.08;101323.94;5074769;28;20105;-59
2022/03/29 04:42:45;;;;;;;95.97;55.47;;;10.90;99.90;;;11.17;87.13;101308.97;5074726;28;20059;-60
2022/03/29 04:45:15;;;;;;;86.65;53.47;;;10.90;99.90;;;11.09;87.19;101295.72;5074632;28;20045;-59
2022/03/29 04:47:45;;;;;;;89.03;53.42;;;10.90;99.90;;;11.20;86.96;101298.38;5074255;28;20132;-59
2022/03/29 04:50:15;;;;;;;90.45;53.75;;;11.00;99.90;;;11.28;86.77;101301.91;5074596;28;20462;-59
2022/03/29 04:52:46;;;;;;;92.80;54.80;;;11.00;99.90;;;11.15;87.13;101284.25;5074780;28;20094;-59
2022/03/29 04:55:15;;;;;;;87.20;53.67;;;10.90;99.90;;;11.14;87.15;101286.03;5074639;28;20045;-60
2022/03/29 04:57:45;;;;;;;87.75;50.90;;;10.90;99.90;;;11.14;87.03;101287.78;5074053;28;20133;-59
2022/03/29 05:00:16;;;;;;;91.15;54.15;;;10.90;99.90;;;10.87;87.23;101292.19;5090069;28;20059;-60
2022/03/29 05:02:45;;;;;;;80.38;49.70;;;10.80;99.90;;;10.80;88.00;101290.41;5073971;28;20082;-59
2022/03/29 05:05:14;;;;;;;88.75;48.60;;;10.60;99.90;;;10.40;88.49;101285.91;5073998;28;20093;-60
2022/03/29 05:07:44;;;;;;;93.50;50.35;;;10.40;99.90;;;10.25;89.36;101279.69;5074191;28;20120;-59
2022/03/29 05:10:14;;;;;;;89.60;51.63;;;10.20;99.90;;;10.20;89.84;101271.72;5074562;28;20079;-59
2022/03/29 05:12:44;;;;;;;86.30;48.83;;;10.10;99.90;;;10.14;89.94;101277.03;5073904;28;20409;-59
2022/03/29 05:15:13;;;;;;;84.53;51.00;;;10.10;99.90;;;10.12;90.67;101289.34;5073836;28;20052;-59
2022/03/29 05:17:43;;;;;;;83.35;48.03;;;9.90;99.90;;;10.22;90.51;101300.84;5106591;28;20056;-59
2022/03/29 05:20:13;;;;;;;83.65;49.22;;;10.00;99.90;;;9.97;90.42;101294.50;5073473;28;20094;-59
2022/03/29 05:22:44;;;;;;;83.15;50.60;;;9.90;99.90;;;10.12;91.18;101297.28;5073692;28;20521;-59
2022/03/29 05:25:13;;;;;;;81.25;49.55;;;9.90;99.90;;;10.18;90.61;101289.34;5073666;28;20044;-59
2022/03/29 05:27:42;;;;;;;81.20;48.17;;;10.00;99.90;;;9.55;92.80;101304.81;5073721;28;20094;-59
2022/03/29 05:30:13;;;;;;;86.47;51.15;;;9.50;99.90;;;9.50;94.39;101307.47;5073589;28;20506;-60
2022/03/29 05:32:41;;;;;;;88.38;52.45;;;9.20;99.90;;;9.90;94.68;101314.75;5073775;28;20490;-60
2022/03/29 05:35:12;;;;;;;91.80;53.42;;;9.50;99.90;;;10.14;93.82;101303.47;5073591;28;20041;-59
2022/03/29 05:37:43;;;;;;;89.07;51.75;;;9.80;99.90;;;10.31;92.63;101306.16;5072524;28;20573;-59
2022/03/29 05:40:13;;;;;;;93.85;53.22;;;10.00;99.90;;;10.24;92.10;101280.59;5073346;28;20048;-60
2022/03/29 05:42:43;;;;;;;88.72;51.97;;;10.10;99.90;;;10.49;90.85;101312.38;5072861;28;20070;-59
2022/03/29 05:45:14;;;;;;;80.68;48.97;;;10.20;99.90;;;10.34;90.46;101306.16;5073240;28;20052;-59
2022/03/29 05:50:29;;;;;;;79.28;48.47;;;10.20;99.90;;;10.28;90.47;101308.78;5073464;28;20273;-59
2022/03/29 05:52:59;;;;;;;78.43;47.22;;;10.00;99.90;;;10.26;89.78;101295.53;5072970;28;20075;-59
2022/03/29 05:55:28;;;;;;;81.43;48.38;;;10.10;99.90;;;10.00;89.74;101299.81;5073133;28;20041;-59
2022/03/29 05:57:57;;;;;;;74.25;44.72;;;9.90;99.90;;;9.54;91.60;101296.00;5073278;28;20127;-59
2022/03/29 06:00:27;;;;;;;74.05;44.75;;;9.50;99.90;;;9.51;92.02;101296.00;5072910;28;20037;-59
2022/03/29 06:02:55;;;;;;;101.40;48.70;;;9.40;99.90;;;9.01;94.72;101289.47;5071941;28;20090;-59
2022/03/29 06:05:24;;;;;;;79.57;46.50;;;8.90;99.90;;;9.26;95.08;101286.16;5073663;28;20397;-60
2022/03/29 06:07:52;;;;;;;78.80;47.80;;;9.00;99.90;;;9.58;94.98;101278.47;5073035;28;20460;-59
2022/03/29 06:10:22;;;;;;;82.82;49.10;;;9.20;99.90;;;9.77;93.52;101289.16;5072795;28;20382;-59
2022/03/29 06:12:50;;;;;;;77.55;46.55;;;9.40;99.90;;;9.89;93.09;101286.53;5073350;28;20505;-59
2022/03/29 06:15:19;;;;;;;81.93;48.28;;;9.60;99.90;;;10.00;92.88;101284.84;5072925;28;20068;-59
2022/03/29 06:17:47;;;;;;;83.55;49.95;;;9.70;99.90;;;10.14;92.34;101284.06;5073080;28;20041;-59
2022/03/29 06:20:15;;;;;;;84.57;50.90;;;9.90;99.90;;;10.23;91.40;101287.63;5072882;28;20044;-60
2022/03/29 06:22:46;;;;;;;88.47;51.28;;;10.00;99.90;;;10.33;91.14;101286.78;5072479;28;20482;-59
2022/03/29 06:25:15;;;;;;;84.82;50.42;;;10.10;99.90;;;10.01;90.83;101289.25;5072798;28;20094;-61
2022/03/29 06:27:44;;;;;;;88.00;51.90;;;9.90;99.90;;;9.97;90.59;101239.91;5072408;28;20072;-61
2022/03/29 06:30:14;;;;;;;78.83;49.40;;;10.00;99.90;;;10.33;90.34;101289.41;5072779;28;20102;-61
2022/03/29 06:32:47;;;;;;;83.55;49.10;;;10.10;99.90;;;10.42;90.03;101296.47;5072350;28;20032;-62
2022/03/29 06:35:17;;;;;;;83.78;49.95;;;10.10;99.90;;;10.48;89.34;101288.56;5071334;28;20052;-61
2022/03/29 06:37:45;;;;;;;;;;;10.20;99.90;;;10.51;89.07;101288.59;5073359;28;20458;-62
2022/03/29 06:40:14;;;;;;;84.05;48.38;;;10.30;99.90;;;10.55;88.90;101296.53;5072605;28;19931;-61
2022/03/29 06:42:44;;;;;;;80.15;48.08;;;10.30;99.90;;;10.65;88.35;101286.84;5072531;28;20492;-60
2022/03/29 06:45:12;;;;;;;78.07;47.58;;;10.40;99.90;;;10.77;88.37;101300.09;5072329;28;20146;-60
2022/03/29 06:47:41;;;;;;;72.15;45.75;;;10.50;99.90;;;10.81;87.52;101297.47;5072045;28;20115;-60
2022/03/29 06:50:11;;;;;;;76.88;47.35;;;10.60;99.90;;;10.87;87.21;101304.53;5072108;28;20494;-60
2022/03/29 06:52:41;;;;;;;71.93;45.70;;;10.60;99.90;;;10.12;88.78;101294.63;5072222;28;20139;-60
2022/03/29 06:55:14;;;;;;;77.18;47.50;;;10.00;99.90;;;10.25;88.39;101303.47;5072037;28;20079;-61
2022/03/29 06:57:44;;;;;;;79.88;45.50;;;10.10;99.90;;;9.94;89.34;101299.78;5072181;28;20384;-67
2022/03/29 07:00:14;;;;;;;72.78;45.05;;;9.90;99.90;;;9.72;89.98;101298.78;5072027;28;20037;-62
2022/03/29 07:02:43;;;;;;;79.75;47.53;;;9.60;99.90;;;9.58;90.43;101300.44;5071873;28;20076;-62
2022/03/29 07:05:12;;;;;;;75.93;47.25;;;9.50;99.90;;;9.86;91.03;101297.09;5071725;28;20127;-61
2022/03/29 07:07:40;;;;;;;83.38;49.83;;;9.60;99.90;;;9.89;90.13;101289.19;5070610;28;20463;-62
2022/03/29 07:13:00;;;;;;;81.80;47.92;;;9.50;99.90;;;9.89;91.00;101273.34;5071775;28;20040;-62
2022/03/29 07:15:30;;;;;;;84.22;48.50;;;9.70;99.90;;;9.79;90.86;101291.78;5071883;28;20048;-62
2022/03/29 07:17:59;;;;;;;85.28;51.08;;;9.70;99.90;;;9.38;92.16;101294.16;5071714;28;20116;-62
2022/03/29 07:20:29;;;;;;;;;;;9.40;99.90;;;9.60;92.54;101290.78;5072317;28;20106;-60
2022/03/29 07:22:57;;;;;;;80.93;48.28;;;9.40;99.90;;;9.81;92.53;101296.19;5071574;28;19930;-61
2022/03/29 07:25:31;;;;;;;83.53;50.28;;;9.50;99.90;;;9.02;93.03;101272.75;5071458;28;20049;-61
2022/03/29 07:28:02;;;;;;;79.25;45.90;;;9.20;99.90;;;9.23;94.58;101288.78;5071572;28;20059;-61
2022/03/29 07:30:31;;;;;;;77.53;47.40;;;9.00;99.90;;;9.06;94.82;101287.75;5071551;28;20102;-61
2022/03/29 07:33:00;;;;;;;79.00;46.10;;;8.90;99.90;;;9.23;94.30;101267.66;5071440;28;20044;-61
2022/03/29 07:35:31;;;;;;;76.88;46.42;;;9.10;99.90;;;9.21;93.58;101294.91;5071378;28;20538;-61
2022/03/29 07:37:59;;;;;;;;;;;9.00;99.90;;;9.29;93.77;101302.00;5071716;28;20049;-61
2022/03/29 07:40:30;;;;;;;84.40;47.50;;;9.10;99.90;;;9.04;94.57;101281.56;5071326;28;20019;-61
2022/03/29 07:43:00;;;;;;;77.93;47.20;;;8.90;99.90;;;9.15;94.90;101274.63;5072902;28;20432;-61
2022/03/29 07:45:29;;;;;;;87.53;49.80;;;8.90;99.90;;;8.69;95.33;101270.69;5075771;28;20117;-61
2022/03/29 07:47:58;;;;;;;84.85;50.13;;;8.70;99.90;;;8.78;96.09;101281.34;5075824;28;20048;-61
2022/03/29 07:50:47;;;;;;;89.25;50.65;;;8.50;99.90;;;8.36;98.04;101280.03;5075441;28;20147;-59
2022/03/29 07:53:15;;;;;;;90.88;52.33;;;8.30;99.90;;;8.55;99.79;101282.88;5057765;28;20045;-59
2022/03/29 07:55:45;;;;;;;98.65;53.92;;;8.30;99.90;;;8.61;100.00;101276.78;5075620;28;20098;-59
2022/03/29 07:58:20;;;;;;;93.53;52.92;;;8.40;99.90;;;8.94;99.58;101277.09;5075580;28;20068;-62
2022/03/29 08:00:50;;;;;;;94.70;53.72;;;8.60;99.90;;;9.06;98.36;101277.19;5075472;28;20210;-59
2022/03/29 08:03:21;;;;;;;;;;;8.80;99.90;;;9.20;97.33;101275.53;5076398;28;20136;-60
2022/03/29 08:05:51;;;;;;;93.78;51.47;;;9.00;99.90;;;9.43;97.13;101267.78;5075184;28;20019;-59
2022/03/29 08:08:20;;;;;;;85.10;49.67;;;9.10;99.90;;;9.37;95.43;101278.31;5075410;28;20143;-60
2022/03/29 08:10:50;;;;;;;83.30;48.28;;;9.20;99.90;;;9.50;95.03;101285.44;5075200;28;20671;-59
2022/03/29 08:13:20;;;;;;;78.18;45.05;;;9.30;99.90;;;8.94;96.33;101285.88;5074932;28;20078;-59
2022/03/29 08:15:52;;;;;;;79.97;44.75;;;8.80;99.90;;;8.46;96.04;101272.22;5075203;28;20044;-59
2022/03/29 08:18:21;;;;;;;76.07;45.08;;;8.60;99.90;;;9.05;96.91;101272.78;5075160;28;20052;-60
2022/03/29 08:20:50;;;;;;;75.70;46.05;;;8.80;99.90;;;8.99;95.25;101278.91;5074929;28;20062;-59
2022/03/29 08:23:18;;;;;;;78.40;45.25;;;8.80;99.90;;;8.94;95.92;101277.09;5074811;28;20432;-59
2022/03/29 08:25:47;;;;;;;82.00;47.78;;;8.80;99.90;;;8.64;95.38;101267.16;5074544;28;20033;-59
2022/03/29 08:28:16;;;;;;;76.57;45.13;;;8.60;99.90;;;8.82;96.16;101274.34;5074870;28;20113;-59
2022/03/29 08:30:47;;;;;;;79.45;47.55;;;8.60;99.90;;;8.73;96.42;101284.81;5074825;28;20080;-59
2022/03/29 08:33:15;;;;;;;83.53;48.25;;;8.60;99.90;;;8.58;97.11;101284.66;5073233;28;20044;-60
2022/03/29 08:35:45;;;;;;;90.25;47.80;;;8.50;99.90;;;8.29;97.73;101284.34;5074962;28;20482;-59
2022/03/29 08:38:13;;;;;;;86.40;50.53;;;8.20;99.90;;;8.65;98.69;101291.78;5074590;28;20075;-59
2022/03/29 08:40:59;;;;;;;84.57;48.58;;;8.40;99.90;;;8.81;97.81;101286.66;5074507;28;20292;-59
2022/03/29 08:43:30;;;;;;;84.65;49.60;;;8.60;99.90;;;8.80;97.67;101289.28;5074469;28;20049;-59
2022/03/29 08:46:01;;;;;;;77.47;47.30;;;8.60;99.90;;;8.81;97.60;101269.94;5074298;28;20044;-59
2022/03/29 08:48:31;;;;;;;79.13;46.83;;;8.60;99.90;;;8.79;97.08;101285.75;5074541;28;20398;-59
2022/03/29 08:51:04;;;;;;;81.23;47.63;;;8.60;99.90;;;9.04;96.59;101268.38;5074170;28;20486;-59
2022/03/29 08:53:52;;;;;;;75.85;47.05;;;8.70;99.90;;;9.41;95.52;101275.69;5073421;28;20045;-59
2022/03/29 08:56:21;;;;;;;78.78;46.45;;;9.10;99.90;;;9.70;94.53;101278.50;5074019;28;20494;-59
2022/03/29 08:58:50;;;;;;;79.43;46.90;;;9.40;99.90;;;9.64;93.15;101258.22;5074016;28;20090;-59
2022/03/29 09:01:21;;;;;;;73.85;45.97;;;9.50;99.90;;;9.86;92.58;101278.63;5074066;28;20124;-59
2022/03/29 09:04:05;;;;;;;79.10;45.67;;;9.70;99.90;;;9.66;91.82;101272.34;5074272;28;20056;-59
2022/03/29 09:06:35;;;;;;;73.90;46.78;;;9.60;99.90;;;9.70;91.77;101276.75;5074124;28;20441;-59
2022/03/29 09:09:03;;;;;;;74.15;46.00;;;9.50;99.90;;;9.54;92.89;101276.69;5073862;28;20037;-59
2022/03/29 09:11:41;;;;;;;80.47;47.22;;;9.30;99.90;;;9.16;93.50;101271.09;5073775;28;20043;-59
2022/03/29 09:14:29;;;;;;;73.38;45.03;;;9.10;99.90;;;9.51;94.21;101272.25;5073764;28;20053;-59
2022/03/29 09:16:59;;;;;;;71.07;43.92;;;9.10;99.90;;;9.24;93.93;101263.25;5074624;28;20522;-59
2022/03/29 09:19:49;;;;;;;73.00;44.92;;;9.10;99.90;;;9.44;92.95;101259.88;5073958;28;20045;-59
2022/03/29 09:22:42;;;;;;;75.93;45.67;;;9.30;99.90;;;9.87;92.76;101261.88;5072968;28;20048;-59
2022/03/29 09:25:14;;;;;;;75.07;47.28;;;9.50;99.90;;;10.03;91.55;101253.16;5073515;28;20490;-59
2022/03/29 09:27:58;;;;;;;71.18;43.80;;;9.70;99.90;;;10.21;89.95;101262.03;5073615;28;20044;-59
2022/03/29 09:30:30;;;;;;;72.88;45.58;;;9.90;99.90;;;10.05;89.47;101263.72;5073505;28;20106;-59
2022/03/29 09:33:04;;;;;;;72.80;44.95;;;9.90;99.90;;;10.33;89.07;101249.75;5073834;28;20052;-59
2022/03/29 09:35:34;;;;;;;69.60;43.65;;;10.10;99.90;;;10.26;87.69;101244.47;5073875;28;20048;-59
2022/03/29 09:38:02;;;;;;;68.75;41.40;;;10.10;99.90;;;10.35;87.32;101247.13;5073370;28;20044;-59
2022/03/29 09:40:39;;;;;;;66.65;43.45;;;10.20;99.90;;;10.60;86.78;101256.88;5073450;28;20474;-59
2022/03/29 09:43:40;;;;;;;67.40;41.75;;;10.30;99.90;;;10.71;85.91;101258.63;5073966;28;20135;-59
2022/03/29 09:46:08;;;;;;;65.20;40.38;;;10.50;99.90;;;10.79;85.60;101258.66;5073452;28;20064;-59
2022/03/29 09:48:40;;;;;;;81.90;41.95;;;10.50;99.90;;;9.96;86.22;101256.66;5073159;28;20048;-59
2022/03/29 09:51:21;;;;;;;68.30;42.08;;;10.10;99.90;;;9.84;89.84;101251.31;5073601;28;20052;-59
2022/03/29 09:53:58;;;;;;;67.40;41.65;;;9.60;99.90;;;9.62;89.86;101244.13;5073369;28;20399;-59
2022/03/29 09:56:30;;;;;;;71.50;43.00;;;9.60;99.90;;;10.04;89.76;101254.91;5073819;28;20110;-59
2022/03/29 09:59:17;;;;;;;70.40;42.80;;;9.70;99.90;;;10.24;90.56;101246.22;5072856;28;20044;-59
2022/03/29 10:01:53;;;;;;;70.57;42.08;;;9.90;99.90;;;10.28;88.21;101248.84;5072836;28;20048;-59
2022/03/29 10:04:26;;;;;;;70.03;41.67;;;10.10;99.90;;;10.33;87.65;101241.84;5072814;28;20123;-59
2022/03/29 10:06:57;;;;;;;63.08;41.08;;;10.20;99.90;;;10.25;87.14;101222.41;5071869;28;20052;-60
2022/03/29 10:09:30;;;;;;;65.50;43.03;;;10.20;99.90;;;9.40;89.22;101242.25;5072881;28;20047;-60
2022/03/29 10:12:04;;;;;;;68.88;41.55;;;9.50;99.90;;;9.42;90.37;101244.91;5073176;28;20047;-59
2022/03/29 10:14:36;;;;;;;68.80;43.53;;;9.30;99.90;;;9.40;92.53;101247.53;5072691;28;20040;-59
2022/03/29 10:17:06;;;;;;;72.65;44.78;;;9.10;99.90;;;9.19;93.23;101231.56;5072566;28;20048;-60
2022/03/29 10:19:41;;;;;;;74.65;44.00;;;9.00;99.90;;;9.24;93.24;101221.91;5072662;28;20533;-59
2022/03/29 10:22:10;;;;;;;74.38;46.15;;;9.10;99.90;;;9.78;93.32;101216.03;5072506;28;20084;-59
2022/03/29 10:24:38;;;;;;;67.85;43.75;;;9.40;99.90;;;10.19;91.23;101221.50;5072407;28;20033;-59